Hays Regional Airport
KHYS : rendu visible

Aérodrome :











RETROUVEZ-NOUS SUR...

 
LOGIN :

S'inscrire | Disclaimer

   EN    FR    IT 

 









Légende :    VFR   VFR Marginal   IFR   IFR Intensif   IFR Très Intensif
Visi : 
Plafond : 
>= 8 km
>= 3000ft
5 à 8 km
1000 à 3000 ft
1500m à 5 km
500 à 1000 ft
800 à 1500m
200 à 500 ft
< 800m
< 200 ft
Symboles :   Orages  Brouillard  Fortes neiges  Fortes précipitations  Vent > 20 kt






- Altitude de l'aérodrome : 1999 ft


KHYS - Hays Regional

DERNIER METAR :
  • 171756Z AUTO 19014KT 10SM OVC004 00/M01 A2994 RMK AO2 PRESFR SLP159 P0002 60004 T00001006 10000 21011 57032 FZRANO

METARs EXPIRÉS :
  • 171656Z AUTO 17017G23KT 10SM OVC004 00/M01 A2997 RMK AO2 SLP170 P0001 T00001006 FZRANO
  • 171556Z AUTO 17017G25KT 7SM OVC004 00/M01 A3001 RMK AO2 SLP182 P0001 T00001006 FZRANO

TAF KHYS
Valide du 17 à 18h jusqu'au 18 à 18h UTC


171754Z 1718/1818 18025KT P6SM OVC004
FM172230 19025G36KT P6SM BKN006
FM180100 22019G27KT P6SM BKN016
FM180400 30019G27KT P6SM BKN070
FM180900 32030G39KT P6SM SKC
FM181200 32019G27KT P6SM SKC WS020/33050KT



MET'MAP, la Météo Aéronautique d'un coup d'oeil ! - Copyright ORBIFLY Décembre 2007 - Disclaimer

ORBIFLY MET'MAP TEAM :

Programmation & Développement : Alexandra Zaïnal
Sur une idée originale de : Baudouin d'Aumeries
Assistance à la programmation : Marc-Olivier Méhu
Soutien technique & logistique : Manuel Goepfert

Contact : metmap@orbifly.com




SOURCES & CREDITS :

   NOAA       Earth
Advisory